RUK1EC EGSS-LFBO
Flight info
| Callsign | RUK1EC |
|---|---|
| Flight time | 1h 27m |
| Altitude | 31000 |
| Route | NUGBO M183 SILVA Q41 COWLY DCT GWC UN859 LGL/N0411F290 UN859 SOPIL DCT BALAN DCT EVPOK DCT NARAK |
| Aircraft | B38M/M-SDE1FGHILORVWXY/HB1 |
Departure
| Time | 2026-05-01 08:48 |
|---|---|
| Airport | London Stansted Airport (EGSS) |
Arrival
| Time | 2026-05-01 10:15 |
|---|---|
| Airport | Toulouse-Blagnac Airport (LFBO) |
| Time | Latitude | Longitude | Altitude | Speed | Heading |
|---|---|---|---|---|---|
| 2026-05-01 08:18 | 51.89079 | 0.25643 | 357 ft | 0 kts | 43° |
| 2026-05-01 08:38 | 51.89078 | 0.25642 | 357 ft | 1 kts | 43° |
| 2026-05-01 08:38 | 51.89066 | 0.25624 | 357 ft | 3 kts | 43° |
| 2026-05-01 08:38 | 51.89054 | 0.25606 | 361 ft | 3 kts | 40° |
| 2026-05-01 08:38 | 51.89039 | 0.25591 | 354 ft | 3 kts | 4° |
| 2026-05-01 08:39 | 51.89023 | 0.25598 | 361 ft | 3 kts | 320° |
| 2026-05-01 08:39 | 51.89012 | 0.25616 | 359 ft | 1 kts | 313° |
| 2026-05-01 08:39 | 51.89009 | 0.25621 | 358 ft | 0 kts | 313° |
| 2026-05-01 08:41 | 51.89013 | 0.25615 | 359 ft | 3 kts | 313° |
| 2026-05-01 08:43 | 51.89029 | 0.25587 | 361 ft | 10 kts | 313° |
| 2026-05-01 08:43 | 51.89108 | 0.25451 | 351 ft | 23 kts | 313° |
| 2026-05-01 08:43 | 51.89164 | 0.25261 | 351 ft | 12 kts | 232° |
| 2026-05-01 08:44 | 51.89100 | 0.25161 | 354 ft | 14 kts | 222° |
| 2026-05-01 08:44 | 51.89026 | 0.25053 | 357 ft | 15 kts | 222° |
| 2026-05-01 08:44 | 51.88971 | 0.24970 | 354 ft | 18 kts | 223° |
| 2026-05-01 08:44 | 51.88852 | 0.24791 | 351 ft | 29 kts | 223° |
| 2026-05-01 08:45 | 51.88680 | 0.24532 | 351 ft | 38 kts | 223° |
| 2026-05-01 08:45 | 51.88475 | 0.24228 | 355 ft | 41 kts | 222° |
| 2026-05-01 08:45 | 51.88199 | 0.23810 | 351 ft | 41 kts | 223° |
| 2026-05-01 08:45 | 51.87990 | 0.23496 | 351 ft | 41 kts | 224° |
| 2026-05-01 08:46 | 51.87850 | 0.23284 | 358 ft | 41 kts | 221° |
| 2026-05-01 08:46 | 51.87739 | 0.23018 | 357 ft | 20 kts | 307° |
| 2026-05-01 08:46 | 51.87824 | 0.22860 | 355 ft | 17 kts | 318° |
| 2026-05-01 08:46 | 51.87924 | 0.22706 | 344 ft | 22 kts | 318° |
| 2026-05-01 08:47 | 51.87972 | 0.22688 | 344 ft | 4 kts | 42° |
| 2026-05-01 08:47 | 51.88007 | 0.22739 | 347 ft | 9 kts | 42° |
| 2026-05-01 08:47 | 51.88091 | 0.22866 | 341 ft | 34 kts | 43° |
| 2026-05-01 08:47 | 51.88486 | 0.23456 | 352 ft | 118 kts | 42° |
| 2026-05-01 08:48 | 51.89269 | 0.24629 | 365 ft | 184 kts | 43° |
| 2026-05-01 08:48 | 51.90247 | 0.26112 | 922 ft | 192 kts | 43° |
| 2026-05-01 08:48 | 51.91194 | 0.27546 | 1941 ft | 182 kts | 42° |
| 2026-05-01 08:48 | 51.92205 | 0.28943 | 2630 ft | 203 kts | 28° |
| 2026-05-01 08:49 | 51.93610 | 0.29612 | 3235 ft | 223 kts | 1° |
| 2026-05-01 08:49 | 51.95178 | 0.29053 | 3866 ft | 243 kts | 330° |
| 2026-05-01 08:49 | 51.96426 | 0.27228 | 4326 ft | 244 kts | 302° |
| 2026-05-01 08:49 | 51.96945 | 0.24647 | 4509 ft | 243 kts | 279° |
| 2026-05-01 08:50 | 51.97239 | 0.21936 | 4658 ft | 245 kts | 280° |
| 2026-05-01 08:50 | 51.97544 | 0.19222 | 4701 ft | 247 kts | 280° |
| 2026-05-01 08:50 | 51.97858 | 0.16393 | 4732 ft | 259 kts | 280° |
| 2026-05-01 08:50 | 51.98053 | 0.14626 | 4760 ft | 263 kts | 280° |
| 2026-05-01 08:51 | 51.98377 | 0.11678 | 4774 ft | 266 kts | 280° |
| 2026-05-01 08:51 | 51.98701 | 0.08721 | 4787 ft | 267 kts | 280° |
| 2026-05-01 08:51 | 51.98866 | 0.05746 | 4772 ft | 265 kts | 263° |
| 2026-05-01 08:51 | 51.98516 | 0.02808 | 4799 ft | 266 kts | 258° |
| 2026-05-01 08:52 | 51.98149 | -0.00142 | 4790 ft | 266 kts | 258° |
| 2026-05-01 08:52 | 51.97777 | -0.03082 | 4787 ft | 266 kts | 258° |
| 2026-05-01 08:52 | 51.97400 | -0.06023 | 4793 ft | 267 kts | 258° |
| 2026-05-01 08:52 | 51.97018 | -0.08986 | 5177 ft | 268 kts | 258° |
| 2026-05-01 08:53 | 51.96638 | -0.11924 | 6271 ft | 268 kts | 258° |
| 2026-05-01 08:53 | 51.96249 | -0.14917 | 7209 ft | 274 kts | 258° |
| 2026-05-01 08:53 | 51.95854 | -0.17945 | 8176 ft | 277 kts | 258° |
| 2026-05-01 08:53 | 51.95451 | -0.21032 | 9094 ft | 282 kts | 258° |
| 2026-05-01 08:54 | 51.95050 | -0.24093 | 9989 ft | 285 kts | 258° |
| 2026-05-01 08:54 | 51.94628 | -0.27307 | 10645 ft | 299 kts | 258° |
| 2026-05-01 08:54 | 51.94186 | -0.30672 | 11063 ft | 320 kts | 258° |
| 2026-05-01 08:54 | 51.93707 | -0.34301 | 11443 ft | 339 kts | 258° |
| 2026-05-01 08:55 | 51.93196 | -0.38168 | 11956 ft | 353 kts | 258° |
| 2026-05-01 08:55 | 51.92684 | -0.42032 | 12705 ft | 356 kts | 258° |
| 2026-05-01 08:55 | 51.92160 | -0.45974 | 13445 ft | 361 kts | 258° |
| 2026-05-01 08:55 | 51.91628 | -0.49970 | 14160 ft | 365 kts | 258° |
| 2026-05-01 08:56 | 51.91089 | -0.53999 | 14856 ft | 368 kts | 258° |
| 2026-05-01 08:56 | 51.90542 | -0.58078 | 15532 ft | 372 kts | 258° |
| 2026-05-01 08:56 | 51.89990 | -0.62191 | 16183 ft | 376 kts | 258° |
| 2026-05-01 08:56 | 51.89430 | -0.66343 | 16813 ft | 379 kts | 258° |
| 2026-05-01 08:57 | 51.88863 | -0.70537 | 17430 ft | 383 kts | 258° |
| 2026-05-01 08:57 | 51.88290 | -0.74761 | 18019 ft | 386 kts | 257° |
| 2026-05-01 08:57 | 51.87711 | -0.79023 | 18603 ft | 390 kts | 257° |
| 2026-05-01 08:57 | 51.87124 | -0.83327 | 19169 ft | 393 kts | 257° |
| 2026-05-01 08:58 | 51.86532 | -0.87664 | 19714 ft | 396 kts | 257° |
| 2026-05-01 08:58 | 51.85865 | -0.92005 | 20234 ft | 400 kts | 250° |
| 2026-05-01 08:58 | 51.84544 | -0.95952 | 20767 ft | 402 kts | 232° |
| 2026-05-01 08:58 | 51.82525 | -0.99079 | 21252 ft | 406 kts | 214° |
| 2026-05-01 08:59 | 51.80005 | -1.01132 | 21826 ft | 403 kts | 195° |
| 2026-05-01 08:59 | 51.77320 | -1.02159 | 22824 ft | 393 kts | 189° |
| 2026-05-01 08:59 | 51.74631 | -1.03003 | 23343 ft | 396 kts | 188° |
| 2026-05-01 08:59 | 51.71899 | -1.03781 | 23775 ft | 400 kts | 188° |
| 2026-05-01 09:00 | 51.69156 | -1.04527 | 24215 ft | 402 kts | 187° |
| 2026-05-01 09:00 | 51.66387 | -1.05256 | 24616 ft | 404 kts | 187° |
| 2026-05-01 09:00 | 51.63612 | -1.05964 | 25018 ft | 406 kts | 185° |
| 2026-05-01 09:00 | 51.60791 | -1.05891 | 25393 ft | 406 kts | 169° |
| 2026-05-01 09:01 | 51.58028 | -1.04876 | 25780 ft | 408 kts | 166° |
| 2026-05-01 09:01 | 51.55250 | -1.03810 | 26134 ft | 412 kts | 166° |
| 2026-05-01 09:01 | 51.52461 | -1.02706 | 26521 ft | 414 kts | 166° |
| 2026-05-01 09:01 | 51.49661 | -1.01577 | 26895 ft | 416 kts | 166° |
| 2026-05-01 09:02 | 51.46845 | -1.00430 | 27258 ft | 419 kts | 166° |
| 2026-05-01 09:02 | 51.44006 | -0.99271 | 27617 ft | 422 kts | 166° |
| 2026-05-01 09:02 | 51.41157 | -0.98107 | 27977 ft | 424 kts | 166° |
| 2026-05-01 09:02 | 51.38293 | -0.96939 | 28311 ft | 426 kts | 166° |
| 2026-05-01 09:03 | 51.35408 | -0.95763 | 28669 ft | 429 kts | 166° |
| 2026-05-01 09:03 | 51.32511 | -0.94584 | 29006 ft | 431 kts | 166° |
| 2026-05-01 09:03 | 51.29595 | -0.93399 | 29328 ft | 434 kts | 166° |
| 2026-05-01 09:03 | 51.26663 | -0.92209 | 29654 ft | 436 kts | 166° |
| 2026-05-01 09:04 | 51.23716 | -0.91015 | 29949 ft | 439 kts | 166° |
| 2026-05-01 09:04 | 51.20751 | -0.89814 | 30253 ft | 441 kts | 166° |
| 2026-05-01 09:04 | 51.17807 | -0.88624 | 30602 ft | 441 kts | 166° |
| 2026-05-01 09:04 | 51.14837 | -0.87425 | 30975 ft | 441 kts | 166° |
| 2026-05-01 09:05 | 51.11859 | -0.86224 | 31169 ft | 442 kts | 166° |
| 2026-05-01 09:05 | 51.08880 | -0.85024 | 31187 ft | 440 kts | 166° |
| 2026-05-01 09:05 | 51.02954 | -0.82643 | 31190 ft | 439 kts | 166° |
| 2026-05-01 09:06 | 50.97023 | -0.80266 | 31188 ft | 440 kts | 166° |
| 2026-05-01 09:06 | 50.91092 | -0.77895 | 31192 ft | 440 kts | 166° |
| 2026-05-01 09:07 | 50.85238 | -0.75140 | 31184 ft | 440 kts | 153° |
| 2026-05-01 09:07 | 50.80034 | -0.70016 | 31200 ft | 441 kts | 149° |
| 2026-05-01 09:08 | 50.74856 | -0.64802 | 31199 ft | 441 kts | 149° |
| 2026-05-01 09:08 | 50.69694 | -0.59570 | 31204 ft | 441 kts | 149° |
| 2026-05-01 09:09 | 50.64539 | -0.54355 | 31205 ft | 440 kts | 149° |
| 2026-05-01 09:09 | 50.59385 | -0.49153 | 31203 ft | 440 kts | 149° |
| 2026-05-01 09:10 | 50.54238 | -0.43973 | 31204 ft | 439 kts | 149° |
| 2026-05-01 09:10 | 50.49083 | -0.38799 | 31201 ft | 439 kts | 149° |
| 2026-05-01 09:11 | 50.43932 | -0.33640 | 31203 ft | 439 kts | 149° |
| 2026-05-01 09:11 | 50.38782 | -0.28498 | 31199 ft | 439 kts | 149° |
| 2026-05-01 09:12 | 50.33637 | -0.23373 | 31203 ft | 438 kts | 149° |
| 2026-05-01 09:12 | 50.28493 | -0.18263 | 31201 ft | 438 kts | 149° |
| 2026-05-01 09:13 | 50.23351 | -0.13167 | 31208 ft | 437 kts | 149° |
| 2026-05-01 09:13 | 50.18210 | -0.08087 | 31214 ft | 437 kts | 149° |
| 2026-05-01 09:14 | 50.13078 | -0.03025 | 31215 ft | 436 kts | 149° |
| 2026-05-01 09:14 | 50.07612 | 0.00820 | 31229 ft | 432 kts | 166° |
| 2026-05-01 09:15 | 50.01784 | 0.03216 | 31218 ft | 434 kts | 166° |
| 2026-05-01 09:15 | 49.95966 | 0.05532 | 31214 ft | 435 kts | 166° |
| 2026-05-01 09:16 | 49.90104 | 0.07836 | 31216 ft | 435 kts | 166° |
| 2026-05-01 09:17 | 49.81295 | 0.11284 | 31215 ft | 435 kts | 166° |
| 2026-05-01 09:17 | 49.72474 | 0.14724 | 31213 ft | 436 kts | 166° |
| 2026-05-01 09:18 | 49.63659 | 0.18239 | 31210 ft | 436 kts | 165° |
| 2026-05-01 09:19 | 49.54851 | 0.21780 | 31211 ft | 436 kts | 165° |
| 2026-05-01 09:20 | 49.46446 | 0.25147 | 31212 ft | 436 kts | 165° |
| 2026-05-01 09:21 | 49.34690 | 0.29834 | 31212 ft | 436 kts | 165° |
| 2026-05-01 09:21 | 49.25904 | 0.33487 | 31209 ft | 436 kts | 164° |
| 2026-05-01 09:22 | 49.14251 | 0.38385 | 31211 ft | 436 kts | 164° |
| 2026-05-01 09:23 | 49.05475 | 0.42057 | 31209 ft | 436 kts | 164° |
| 2026-05-01 09:24 | 48.96711 | 0.45710 | 31208 ft | 435 kts | 164° |
| 2026-05-01 09:25 | 48.85029 | 0.50559 | 31206 ft | 434 kts | 163° |
| 2026-05-01 09:26 | 48.76262 | 0.54108 | 31210 ft | 435 kts | 164° |
| 2026-05-01 09:26 | 48.67475 | 0.57560 | 31212 ft | 435 kts | 164° |
| 2026-05-01 09:27 | 48.58683 | 0.61006 | 31212 ft | 435 kts | 164° |
| 2026-05-01 09:28 | 48.52822 | 0.63301 | 31216 ft | 435 kts | 163° |
| 2026-05-01 09:28 | 48.46980 | 0.65683 | 31209 ft | 435 kts | 163° |
| 2026-05-01 09:29 | 48.38221 | 0.69233 | 31219 ft | 435 kts | 163° |
| 2026-05-01 09:30 | 48.29461 | 0.72770 | 31216 ft | 434 kts | 163° |
| 2026-05-01 09:30 | 48.20688 | 0.76255 | 31216 ft | 435 kts | 163° |
| 2026-05-01 09:31 | 48.14883 | 0.78541 | 31219 ft | 435 kts | 163° |
| 2026-05-01 09:32 | 48.06106 | 0.81987 | 31222 ft | 435 kts | 163° |
| 2026-05-01 09:32 | 47.97329 | 0.85422 | 31216 ft | 435 kts | 163° |
| 2026-05-01 09:33 | 47.91468 | 0.87709 | 31222 ft | 435 kts | 163° |
| 2026-05-01 09:34 | 47.83660 | 0.90746 | 31229 ft | 436 kts | 163° |
| 2026-05-01 09:34 | 47.74849 | 0.94161 | 31203 ft | 436 kts | 163° |
| 2026-05-01 09:35 | 47.66017 | 0.97571 | 31236 ft | 438 kts | 163° |
| 2026-05-01 09:36 | 47.60118 | 0.99842 | 31239 ft | 438 kts | 163° |
| 2026-05-01 09:36 | 47.54215 | 1.02110 | 31240 ft | 439 kts | 163° |
| 2026-05-01 09:37 | 47.48311 | 1.04372 | 31238 ft | 439 kts | 163° |
| 2026-05-01 09:37 | 47.42350 | 1.06344 | 31222 ft | 441 kts | 175° |
| 2026-05-01 09:37 | 47.39273 | 1.06289 | 31239 ft | 443 kts | 178° |
| 2026-05-01 09:38 | 47.30001 | 1.06138 | 31239 ft | 445 kts | 179° |
| 2026-05-01 09:39 | 47.20714 | 1.05922 | 31236 ft | 446 kts | 179° |
| 2026-05-01 09:39 | 47.14509 | 1.05777 | 31237 ft | 446 kts | 179° |
| 2026-05-01 09:40 | 47.05176 | 1.05560 | 31232 ft | 448 kts | 179° |
| 2026-05-01 09:41 | 46.98940 | 1.05319 | 31232 ft | 449 kts | 180° |
| 2026-05-01 09:41 | 46.89561 | 1.04920 | 31238 ft | 450 kts | 181° |
| 2026-05-01 09:42 | 46.83294 | 1.04656 | 31234 ft | 451 kts | 181° |
| 2026-05-01 09:43 | 46.70714 | 1.04129 | 31238 ft | 453 kts | 181° |
| 2026-05-01 09:43 | 46.64406 | 1.03866 | 31237 ft | 454 kts | 182° |
| 2026-05-01 09:44 | 46.54947 | 1.03472 | 31240 ft | 457 kts | 182° |
| 2026-05-01 09:45 | 46.48637 | 1.04403 | 31248 ft | 461 kts | 168° |
| 2026-05-01 09:45 | 46.39216 | 1.07485 | 31245 ft | 463 kts | 169° |
| 2026-05-01 09:46 | 46.32923 | 1.09581 | 31229 ft | 465 kts | 169° |
| 2026-05-01 09:46 | 46.26609 | 1.11683 | 31235 ft | 466 kts | 169° |
| 2026-05-01 09:47 | 46.20282 | 1.13784 | 31245 ft | 467 kts | 169° |
| 2026-05-01 09:47 | 46.13946 | 1.15882 | 31250 ft | 468 kts | 170° |
| 2026-05-01 09:48 | 46.07593 | 1.17981 | 31257 ft | 469 kts | 170° |
| 2026-05-01 09:48 | 46.01215 | 1.20084 | 31259 ft | 470 kts | 170° |
| 2026-05-01 09:49 | 45.94838 | 1.22182 | 31258 ft | 470 kts | 171° |
| 2026-05-01 09:49 | 45.88511 | 1.24258 | 31259 ft | 470 kts | 171° |
| 2026-05-01 09:50 | 45.82125 | 1.26349 | 31261 ft | 471 kts | 171° |
| 2026-05-01 09:50 | 45.75733 | 1.28436 | 31260 ft | 470 kts | 171° |
| 2026-05-01 09:51 | 45.69356 | 1.30514 | 31257 ft | 470 kts | 171° |
| 2026-05-01 09:51 | 45.62971 | 1.32589 | 31254 ft | 470 kts | 171° |
| 2026-05-01 09:52 | 45.56593 | 1.34658 | 31251 ft | 470 kts | 171° |
| 2026-05-01 09:52 | 45.50219 | 1.36722 | 31239 ft | 469 kts | 171° |
| 2026-05-01 09:53 | 45.43886 | 1.38764 | 31243 ft | 468 kts | 171° |
| 2026-05-01 09:53 | 45.37531 | 1.40811 | 31242 ft | 467 kts | 171° |
| 2026-05-01 09:54 | 45.31192 | 1.42848 | 31244 ft | 467 kts | 171° |
| 2026-05-01 09:54 | 45.24847 | 1.44882 | 31250 ft | 467 kts | 171° |
| 2026-05-01 09:55 | 45.18515 | 1.46907 | 31261 ft | 466 kts | 171° |
| 2026-05-01 09:55 | 45.12188 | 1.48926 | 31257 ft | 466 kts | 171° |
| 2026-05-01 09:56 | 45.05865 | 1.50939 | 31265 ft | 466 kts | 170° |
| 2026-05-01 09:56 | 45.02710 | 1.51942 | 31106 ft | 462 kts | 170° |
| 2026-05-01 09:56 | 44.99566 | 1.52939 | 29925 ft | 468 kts | 170° |
| 2026-05-01 09:57 | 44.96345 | 1.53962 | 28651 ft | 476 kts | 170° |
| 2026-05-01 09:57 | 44.93138 | 1.54977 | 27931 ft | 471 kts | 170° |
| 2026-05-01 09:57 | 44.89944 | 1.55986 | 27184 ft | 468 kts | 170° |
| 2026-05-01 09:57 | 44.86785 | 1.56986 | 26500 ft | 464 kts | 170° |
| 2026-05-01 09:58 | 44.83848 | 1.57913 | 25879 ft | 460 kts | 170° |
| 2026-05-01 09:58 | 44.80721 | 1.58899 | 25211 ft | 457 kts | 170° |
| 2026-05-01 09:58 | 44.77633 | 1.59872 | 24534 ft | 454 kts | 170° |
| 2026-05-01 09:58 | 44.74554 | 1.60841 | 23878 ft | 452 kts | 170° |
| 2026-05-01 09:59 | 44.71471 | 1.61810 | 22729 ft | 457 kts | 170° |
| 2026-05-01 09:59 | 44.68358 | 1.62788 | 21777 ft | 458 kts | 169° |
| 2026-05-01 09:59 | 44.65266 | 1.63758 | 21161 ft | 451 kts | 169° |
| 2026-05-01 09:59 | 44.62226 | 1.64710 | 20586 ft | 445 kts | 169° |
| 2026-05-01 10:00 | 44.59227 | 1.65648 | 20052 ft | 438 kts | 169° |
| 2026-05-01 10:00 | 44.56283 | 1.66569 | 19545 ft | 431 kts | 169° |
| 2026-05-01 10:00 | 44.53571 | 1.67416 | 19088 ft | 425 kts | 169° |
| 2026-05-01 10:00 | 44.52034 | 1.67895 | 18822 ft | 422 kts | 169° |
| 2026-05-01 10:01 | 44.51157 | 1.68169 | 18673 ft | 420 kts | 169° |
| 2026-05-01 10:01 | 44.49896 | 1.68562 | 18446 ft | 417 kts | 169° |
| 2026-05-01 10:01 | 44.47362 | 1.69352 | 17951 ft | 412 kts | 169° |
| 2026-05-01 10:01 | 44.44583 | 1.70217 | 17429 ft | 407 kts | 169° |
| 2026-05-01 10:02 | 44.41838 | 1.71071 | 16936 ft | 402 kts | 169° |
| 2026-05-01 10:02 | 44.39164 | 1.71902 | 16510 ft | 395 kts | 169° |
| 2026-05-01 10:02 | 44.36501 | 1.72729 | 16127 ft | 388 kts | 169° |
| 2026-05-01 10:02 | 44.33875 | 1.73544 | 15632 ft | 385 kts | 169° |
| 2026-05-01 10:03 | 44.31253 | 1.73953 | 15280 ft | 375 kts | 185° |
| 2026-05-01 10:03 | 44.28729 | 1.73276 | 14811 ft | 370 kts | 200° |
| 2026-05-01 10:03 | 44.26452 | 1.71625 | 14341 ft | 367 kts | 212° |
| 2026-05-01 10:03 | 44.24325 | 1.69733 | 14093 ft | 358 kts | 213° |
| 2026-05-01 10:04 | 44.22269 | 1.67843 | 13862 ft | 349 kts | 213° |
| 2026-05-01 10:04 | 44.20278 | 1.65983 | 13647 ft | 340 kts | 214° |
| 2026-05-01 10:04 | 44.18348 | 1.64163 | 13473 ft | 330 kts | 214° |
| 2026-05-01 10:04 | 44.16477 | 1.62387 | 13289 ft | 321 kts | 214° |
| 2026-05-01 10:05 | 44.14659 | 1.60656 | 13147 ft | 312 kts | 214° |
| 2026-05-01 10:05 | 44.12897 | 1.58977 | 13010 ft | 302 kts | 214° |
| 2026-05-01 10:05 | 44.11190 | 1.57351 | 12880 ft | 293 kts | 214° |
| 2026-05-01 10:05 | 44.09535 | 1.55776 | 12741 ft | 284 kts | 214° |
| 2026-05-01 10:06 | 44.07891 | 1.54211 | 12205 ft | 290 kts | 214° |
| 2026-05-01 10:06 | 44.06213 | 1.52615 | 11729 ft | 294 kts | 214° |
| 2026-05-01 10:06 | 44.04506 | 1.50992 | 11188 ft | 300 kts | 214° |
| 2026-05-01 10:06 | 44.02765 | 1.49341 | 10664 ft | 305 kts | 214° |
| 2026-05-01 10:07 | 44.00999 | 1.47664 | 10160 ft | 310 kts | 214° |
| 2026-05-01 10:07 | 43.99207 | 1.45964 | 9591 ft | 314 kts | 214° |
| 2026-05-01 10:07 | 43.97474 | 1.44109 | 9029 ft | 312 kts | 224° |
| 2026-05-01 10:07 | 43.95977 | 1.41973 | 8494 ft | 306 kts | 225° |
| 2026-05-01 10:08 | 43.93045 | 1.37838 | 7434 ft | 296 kts | 225° |
| 2026-05-01 10:08 | 43.91604 | 1.35822 | 6907 ft | 293 kts | 225° |
| 2026-05-01 10:08 | 43.90195 | 1.33854 | 6382 ft | 290 kts | 224° |
| 2026-05-01 10:09 | 43.88779 | 1.31879 | 5836 ft | 287 kts | 224° |
| 2026-05-01 10:09 | 43.87386 | 1.29933 | 5325 ft | 275 kts | 223° |
| 2026-05-01 10:09 | 43.86065 | 1.28088 | 4789 ft | 265 kts | 222° |
| 2026-05-01 10:09 | 43.84782 | 1.26304 | 4243 ft | 258 kts | 221° |
| 2026-05-01 10:10 | 43.83534 | 1.24570 | 3690 ft | 251 kts | 221° |
| 2026-05-01 10:10 | 43.82329 | 1.22897 | 3217 ft | 246 kts | 221° |
| 2026-05-01 10:10 | 43.79909 | 1.20337 | 3045 ft | 195 kts | 186° |
| 2026-05-01 10:11 | 43.78670 | 1.20464 | 3011 ft | 169 kts | 161° |
| 2026-05-01 10:11 | 43.77593 | 1.21062 | 3102 ft | 167 kts | 150° |
| 2026-05-01 10:11 | 43.76606 | 1.21900 | 3078 ft | 166 kts | 144° |
| 2026-05-01 10:11 | 43.75672 | 1.22829 | 3051 ft | 165 kts | 142° |
| 2026-05-01 10:12 | 43.74753 | 1.23785 | 2967 ft | 165 kts | 142° |
| 2026-05-01 10:12 | 43.74134 | 1.24433 | 2854 ft | 165 kts | 142° |
| 2026-05-01 10:12 | 43.72146 | 1.26506 | 2447 ft | 139 kts | 142° |
| 2026-05-01 10:13 | 43.71391 | 1.27298 | 2238 ft | 134 kts | 142° |
| 2026-05-01 10:13 | 43.70650 | 1.28076 | 2057 ft | 133 kts | 142° |
| 2026-05-01 10:13 | 43.69909 | 1.28852 | 1886 ft | 134 kts | 142° |
| 2026-05-01 10:14 | 43.68426 | 1.30405 | 1521 ft | 133 kts | 142° |
| 2026-05-01 10:14 | 43.67683 | 1.31179 | 1349 ft | 134 kts | 142° |
| 2026-05-01 10:14 | 43.66941 | 1.31946 | 1150 ft | 133 kts | 140° |
| 2026-05-01 10:14 | 43.66202 | 1.32729 | 985 ft | 134 kts | 142° |
| 2026-05-01 10:15 | 43.65465 | 1.33499 | 830 ft | 133 kts | 140° |
| 2026-05-01 10:15 | 43.64732 | 1.34264 | 641 ft | 131 kts | 140° |
| 2026-05-01 10:15 | 43.64016 | 1.35004 | 508 ft | 121 kts | 140° |
| 2026-05-01 10:15 | 43.63568 | 1.35474 | 502 ft | 10 kts | 137° |
| 2026-05-01 10:16 | 43.63563 | 1.35483 | 502 ft | 7 kts | 123° |
| 2026-05-01 10:16 | 43.63575 | 1.35544 | 502 ft | 6 kts | 28° |
| 2026-05-01 10:16 | 43.63658 | 1.35645 | 501 ft | 11 kts | 52° |
| 2026-05-01 10:17 | 43.63707 | 1.35734 | 501 ft | 12 kts | 53° |
| 2026-05-01 10:17 | 43.63815 | 1.35950 | 501 ft | 15 kts | 84° |
| 2026-05-01 10:17 | 43.63752 | 1.36056 | 501 ft | 15 kts | 145° |
| 2026-05-01 10:18 | 43.63577 | 1.36242 | 502 ft | 17 kts | 142° |
| 2026-05-01 10:18 | 43.63483 | 1.36341 | 502 ft | 17 kts | 143° |
| 2026-05-01 10:18 | 43.63385 | 1.36444 | 502 ft | 18 kts | 142° |
| 2026-05-01 10:19 | 43.63285 | 1.36545 | 503 ft | 18 kts | 141° |
| 2026-05-01 10:19 | 43.63186 | 1.36646 | 503 ft | 18 kts | 143° |
| 2026-05-01 10:19 | 43.63104 | 1.36765 | 504 ft | 17 kts | 94° |
| 2026-05-01 10:20 | 43.63158 | 1.36949 | 504 ft | 0 kts | 68° |